sensor_id;sensor_type;location;lat;lon;timestamp;temperature;humidity
8882;DHT22;4477;48.736;9.176;2023-03-14T07:59:44;10.40;99.90
8882;DHT22;4477;48.736;9.176;2023-03-14T13:28:14;9.80;96.70
8882;DHT22;4477;48.736;9.176;2023-03-14T15:20:38;10.40;62.80
8882;DHT22;4477;48.736;9.176;2023-03-14T15:23:12;10.50;60.90
8882;DHT22;4477;48.736;9.176;2023-03-14T16:10:14;12.80;53.70
8882;DHT22;4477;48.736;9.176;2023-03-14T18:25:45;8.80;61.40
8882;DHT22;4477;48.736;9.176;2023-03-14T18:28:12;3.10;99.90
8882;DHT22;4477;48.736;9.176;2023-03-14T18:30:39;2.90;99.90
8882;DHT22;4477;48.736;9.176;2023-03-14T18:33:08;2.90;99.90
8882;DHT22;4477;48.736;9.176;2023-03-14T18:35:37;2.90;99.90
8882;DHT22;4477;48.736;9.176;2023-03-14T18:38:04;2.90;99.90
8882;DHT22;4477;48.736;9.176;2023-03-14T18:40:33;2.90;99.90
8882;DHT22;4477;48.736;9.176;2023-03-14T18:43:03;3.00;99.90
8882;DHT22;4477;48.736;9.176;2023-03-14T18:45:30;2.90;99.90
8882;DHT22;4477;48.736;9.176;2023-03-14T18:47:57;2.90;99.90
8882;DHT22;4477;48.736;9.176;2023-03-14T18:50:25;2.80;99.90
8882;DHT22;4477;48.736;9.176;2023-03-14T18:52:52;2.80;99.90
8882;DHT22;4477;48.736;9.176;2023-03-14T18:55:19;2.70;99.90
8882;DHT22;4477;48.736;9.176;2023-03-14T18:57:46;2.90;99.90
8882;DHT22;4477;48.736;9.176;2023-03-14T19:00:13;3.00;99.90
8882;DHT22;4477;48.736;9.176;2023-03-14T19:02:41;3.00;99.90
8882;DHT22;4477;48.736;9.176;2023-03-14T19:05:08;3.00;99.90
8882;DHT22;4477;48.736;9.176;2023-03-14T19:07:36;3.10;99.90
8882;DHT22;4477;48.736;9.176;2023-03-14T19:10:04;3.20;99.90
8882;DHT22;4477;48.736;9.176;2023-03-14T19:12:32;3.10;99.90
8882;DHT22;4477;48.736;9.176;2023-03-14T19:14:59;3.10;99.90
8882;DHT22;4477;48.736;9.176;2023-03-14T19:17:25;3.20;99.90
8882;DHT22;4477;48.736;9.176;2023-03-14T19:19:53;3.20;99.90
8882;DHT22;4477;48.736;9.176;2023-03-14T19:22:21;3.20;99.90
8882;DHT22;4477;48.736;9.176;2023-03-14T19:24:49;3.20;99.90
8882;DHT22;4477;48.736;9.176;2023-03-14T19:27:17;3.30;99.90
8882;DHT22;4477;48.736;9.176;2023-03-14T19:29:45;3.30;99.90
8882;DHT22;4477;48.736;9.176;2023-03-14T19:32:13;3.40;99.90
8882;DHT22;4477;48.736;9.176;2023-03-14T19:34:41;3.50;99.90
8882;DHT22;4477;48.736;9.176;2023-03-14T19:37:08;3.50;99.90
8882;DHT22;4477;48.736;9.176;2023-03-14T19:39:35;3.40;99.90
8882;DHT22;4477;48.736;9.176;2023-03-14T19:42:04;3.40;99.90
8882;DHT22;4477;48.736;9.176;2023-03-14T19:44:30;3.30;99.90
8882;DHT22;4477;48.736;9.176;2023-03-14T19:46:57;3.30;99.90
8882;DHT22;4477;48.736;9.176;2023-03-14T19:49:25;3.30;99.90
8882;DHT22;4477;48.736;9.176;2023-03-14T19:51:52;3.30;99.90
8882;DHT22;4477;48.736;9.176;2023-03-14T19:54:20;3.30;99.90
8882;DHT22;4477;48.736;9.176;2023-03-14T19:56:47;3.10;99.90
8882;DHT22;4477;48.736;9.176;2023-03-14T19:59:16;3.00;99.90
8882;DHT22;4477;48.736;9.176;2023-03-14T20:01:43;3.00;99.90
8882;DHT22;4477;48.736;9.176;2023-03-14T20:04:11;2.90;99.90
8882;DHT22;4477;48.736;9.176;2023-03-14T20:06:39;2.80;99.90
8882;DHT22;4477;48.736;9.176;2023-03-14T20:09:07;2.70;99.90
8882;DHT22;4477;48.736;9.176;2023-03-14T20:11:35;2.70;99.90
8882;DHT22;4477;48.736;9.176;2023-03-14T20:14:05;2.80;99.90
8882;DHT22;4477;48.736;9.176;2023-03-14T20:16:33;2.90;99.90
8882;DHT22;4477;48.736;9.176;2023-03-14T20:19:03;3.00;99.90
8882;DHT22;4477;48.736;9.176;2023-03-14T20:21:31;3.00;99.90
8882;DHT22;4477;48.736;9.176;2023-03-14T20:23:58;2.90;99.90
8882;DHT22;4477;48.736;9.176;2023-03-14T20:26:25;2.90;99.90
8882;DHT22;4477;48.736;9.176;2023-03-14T20:28:52;2.90;99.90
8882;DHT22;4477;48.736;9.176;2023-03-14T20:31:19;2.90;99.90
8882;DHT22;4477;48.736;9.176;2023-03-14T20:33:48;3.00;99.90
8882;DHT22;4477;48.736;9.176;2023-03-14T20:36:15;2.90;99.90
8882;DHT22;4477;48.736;9.176;2023-03-14T20:38:42;2.90;99.90
8882;DHT22;4477;48.736;9.176;2023-03-14T20:41:08;2.90;99.90
8882;DHT22;4477;48.736;9.176;2023-03-14T20:43:36;3.00;99.90
8882;DHT22;4477;48.736;9.176;2023-03-14T20:46:03;3.10;99.90
8882;DHT22;4477;48.736;9.176;2023-03-14T20:48:31;3.20;99.90
8882;DHT22;4477;48.736;9.176;2023-03-14T20:50:59;3.30;99.90
8882;DHT22;4477;48.736;9.176;2023-03-14T20:53:26;3.40;99.90
8882;DHT22;4477;48.736;9.176;2023-03-14T20:55:55;3.50;99.90
8882;DHT22;4477;48.736;9.176;2023-03-14T20:58:22;3.60;99.90
8882;DHT22;4477;48.736;9.176;2023-03-14T21:00:50;3.70;99.90
8882;DHT22;4477;48.736;9.176;2023-03-14T21:03:18;3.70;99.90
8882;DHT22;4477;48.736;9.176;2023-03-14T21:05:47;3.60;99.90
8882;DHT22;4477;48.736;9.176;2023-03-14T21:08:17;3.60;99.90
8882;DHT22;4477;48.736;9.176;2023-03-14T21:10:55;3.50;99.90
8882;DHT22;4477;48.736;9.176;2023-03-14T21:13:22;3.50;99.90
8882;DHT22;4477;48.736;9.176;2023-03-14T21:15:49;3.50;99.90
8882;DHT22;4477;48.736;9.176;2023-03-14T21:18:16;3.50;99.90
8882;DHT22;4477;48.736;9.176;2023-03-14T21:20:43;3.40;99.90
8882;DHT22;4477;48.736;9.176;2023-03-14T21:23:11;3.40;99.90
8882;DHT22;4477;48.736;9.176;2023-03-14T21:25:40;3.30;99.90
8882;DHT22;4477;48.736;9.176;2023-03-14T21:28:07;3.20;99.90
8882;DHT22;4477;48.736;9.176;2023-03-14T21:30:34;3.10;99.90
8882;DHT22;4477;48.736;9.176;2023-03-14T21:33:02;3.10;99.90
8882;DHT22;4477;48.736;9.176;2023-03-14T21:35:29;3.00;99.90
8882;DHT22;4477;48.736;9.176;2023-03-14T21:37:56;3.00;99.90
8882;DHT22;4477;48.736;9.176;2023-03-14T21:40:23;3.00;99.90
8882;DHT22;4477;48.736;9.176;2023-03-14T21:42:52;3.00;99.90
8882;DHT22;4477;48.736;9.176;2023-03-14T21:45:19;3.00;99.90
8882;DHT22;4477;48.736;9.176;2023-03-14T21:47:46;3.10;99.90
8882;DHT22;4477;48.736;9.176;2023-03-14T21:50:13;3.20;99.90
8882;DHT22;4477;48.736;9.176;2023-03-14T21:52:40;3.10;99.90
8882;DHT22;4477;48.736;9.176;2023-03-14T21:55:11;3.10;99.90
8882;DHT22;4477;48.736;9.176;2023-03-14T21:57:42;3.00;99.90
8882;DHT22;4477;48.736;9.176;2023-03-14T22:00:13;3.00;99.90
8882;DHT22;4477;48.736;9.176;2023-03-14T22:02:41;2.80;99.90
8882;DHT22;4477;48.736;9.176;2023-03-14T22:05:09;2.80;99.90
8882;DHT22;4477;48.736;9.176;2023-03-14T22:07:37;2.70;99.90
8882;DHT22;4477;48.736;9.176;2023-03-14T22:10:05;2.60;99.90
8882;DHT22;4477;48.736;9.176;2023-03-14T22:12:32;2.60;99.90
8882;DHT22;4477;48.736;9.176;2023-03-14T22:14:59;2.60;99.90
8882;DHT22;4477;48.736;9.176;2023-03-14T22:17:27;2.60;99.90
8882;DHT22;4477;48.736;9.176;2023-03-14T22:19:54;2.60;99.90
8882;DHT22;4477;48.736;9.176;2023-03-14T22:22:21;2.60;99.90
8882;DHT22;4477;48.736;9.176;2023-03-14T22:24:48;2.50;99.90
8882;DHT22;4477;48.736;9.176;2023-03-14T22:27:15;2.50;99.90
8882;DHT22;4477;48.736;9.176;2023-03-14T22:29:42;2.50;99.90
8882;DHT22;4477;48.736;9.176;2023-03-14T22:32:09;2.60;99.90
8882;DHT22;4477;48.736;9.176;2023-03-14T22:34:38;2.60;99.90
8882;DHT22;4477;48.736;9.176;2023-03-14T22:37:06;2.60;99.90
8882;DHT22;4477;48.736;9.176;2023-03-14T22:39:33;2.60;99.90
8882;DHT22;4477;48.736;9.176;2023-03-14T22:42:00;2.40;99.90
8882;DHT22;4477;48.736;9.176;2023-03-14T22:44:27;2.00;99.90
8882;DHT22;4477;48.736;9.176;2023-03-14T22:46:57;1.70;99.90
8882;DHT22;4477;48.736;9.176;2023-03-14T22:49:24;1.50;99.90
8882;DHT22;4477;48.736;9.176;2023-03-14T22:51:52;1.30;99.90
8882;DHT22;4477;48.736;9.176;2023-03-14T22:54:19;1.00;99.90
8882;DHT22;4477;48.736;9.176;2023-03-14T22:56:45;0.80;99.90
8882;DHT22;4477;48.736;9.176;2023-03-14T22:59:12;0.70;99.90
8882;DHT22;4477;48.736;9.176;2023-03-14T23:01:39;0.60;99.90
8882;DHT22;4477;48.736;9.176;2023-03-14T23:04:06;0.50;99.90
8882;DHT22;4477;48.736;9.176;2023-03-14T23:06:33;0.50;99.90
8882;DHT22;4477;48.736;9.176;2023-03-14T23:09:01;0.50;99.90
8882;DHT22;4477;48.736;9.176;2023-03-14T23:11:28;0.40;99.90
8882;DHT22;4477;48.736;9.176;2023-03-14T23:13:55;0.50;99.90
8882;DHT22;4477;48.736;9.176;2023-03-14T23:16:22;0.40;99.90
8882;DHT22;4477;48.736;9.176;2023-03-14T23:18:49;0.40;99.90
